In Rescue
 
Open Full Screen Window  High Contrast Mode
September 21, 2020 11:43 PM CDT
Weather Information
Wind Direction
  ---
Wind Speed
  00 kt (0 mph)
Wind Gust
  00 kt (0 mph)
Altimeter
30.06 in
Visibility
7 SM
Temperature
14° C
57° F
Dewpoint
11° C
52° F
Humidity
82%
1hr Rain Fall
00.00 in.
24hr Rain Fall
00.01 in.
Sky Condition
Clear
VFR

METAR KAQP 220443Z AUTO 00000KT 7SM CLR 14/11 A3006 RMK AO2

FAA Disclaimer: The data displayed is for advisory purposes only and is not to be used for flight planning or operations.